sensor_id;sensor_type;location;lat;lon;timestamp;P1;durP1;ratioP1;P2;durP2;ratioP2
32838;SDS011;19182;41.820;12.808;2024-01-30T00:00:06;19.63;;;10.85;;
32838;SDS011;19182;41.820;12.808;2024-01-30T00:02:33;20.23;;;11.20;;
32838;SDS011;19182;41.820;12.808;2024-01-30T00:04:59;20.00;;;10.90;;
32838;SDS011;19182;41.820;12.808;2024-01-30T00:07:25;18.98;;;10.13;;
32838;SDS011;19182;41.820;12.808;2024-01-30T00:09:50;18.63;;;9.05;;
32838;SDS011;19182;41.820;12.808;2024-01-30T00:12:17;16.00;;;9.73;;
32838;SDS011;19182;41.820;12.808;2024-01-30T00:14:43;18.48;;;9.70;;
32838;SDS011;19182;41.820;12.808;2024-01-30T00:17:10;19.48;;;10.55;;
32838;SDS011;19182;41.820;12.808;2024-01-30T00:19:36;17.35;;;10.38;;
32838;SDS011;19182;41.820;12.808;2024-01-30T00:22:04;23.17;;;11.05;;
32838;SDS011;19182;41.820;12.808;2024-01-30T00:24:29;20.25;;;11.45;;
32838;SDS011;19182;41.820;12.808;2024-01-30T00:26:55;20.35;;;11.43;;
32838;SDS011;19182;41.820;12.808;2024-01-30T00:29:21;25.25;;;11.13;;
32838;SDS011;19182;41.820;12.808;2024-01-30T00:31:48;22.33;;;11.35;;
32838;SDS011;19182;41.820;12.808;2024-01-30T00:34:13;19.60;;;10.82;;
32838;SDS011;19182;41.820;12.808;2024-01-30T00:36:40;22.20;;;10.80;;
32838;SDS011;19182;41.820;12.808;2024-01-30T00:39:07;17.20;;;10.52;;
32838;SDS011;19182;41.820;12.808;2024-01-30T00:41:34;21.30;;;11.02;;
32838;SDS011;19182;41.820;12.808;2024-01-30T00:44:00;18.88;;;11.02;;
32838;SDS011;19182;41.820;12.808;2024-01-30T00:46:26;21.27;;;11.95;;
32838;SDS011;19182;41.820;12.808;2024-01-30T00:48:54;19.52;;;10.98;;
32838;SDS011;19182;41.820;12.808;2024-01-30T00:51:20;21.55;;;11.50;;
32838;SDS011;19182;41.820;12.808;2024-01-30T00:53:46;21.20;;;11.40;;
32838;SDS011;19182;41.820;12.808;2024-01-30T00:56:11;25.33;;;12.60;;
32838;SDS011;19182;41.820;12.808;2024-01-30T00:58:40;24.38;;;13.02;;
32838;SDS011;19182;41.820;12.808;2024-01-30T01:01:05;25.88;;;12.68;;
32838;SDS011;19182;41.820;12.808;2024-01-30T01:03:32;21.58;;;11.85;;
32838;SDS011;19182;41.820;12.808;2024-01-30T01:05:58;19.17;;;12.30;;
32838;SDS011;19182;41.820;12.808;2024-01-30T01:08:25;20.08;;;11.55;;
32838;SDS011;19182;41.820;12.808;2024-01-30T01:10:51;26.30;;;14.32;;
32838;SDS011;19182;41.820;12.808;2024-01-30T01:13:17;22.75;;;11.75;;
32838;SDS011;19182;41.820;12.808;2024-01-30T01:15:44;22.90;;;12.20;;
32838;SDS011;19182;41.820;12.808;2024-01-30T01:18:10;25.75;;;13.13;;
32838;SDS011;19182;41.820;12.808;2024-01-30T01:20:35;21.60;;;12.07;;
32838;SDS011;19182;41.820;12.808;2024-01-30T01:23:01;24.98;;;13.18;;
32838;SDS011;19182;41.820;12.808;2024-01-30T01:25:27;22.50;;;13.10;;
32838;SDS011;19182;41.820;12.808;2024-01-30T01:27:54;25.33;;;13.98;;
32838;SDS011;19182;41.820;12.808;2024-01-30T01:30:22;23.60;;;14.18;;
32838;SDS011;19182;41.820;12.808;2024-01-30T01:32:48;31.33;;;15.20;;
32838;SDS011;19182;41.820;12.808;2024-01-30T01:35:21;29.02;;;14.82;;
32838;SDS011;19182;41.820;12.808;2024-01-30T01:37:52;27.92;;;14.00;;
32838;SDS011;19182;41.820;12.808;2024-01-30T01:40:23;25.10;;;14.27;;
32838;SDS011;19182;41.820;12.808;2024-01-30T01:42:53;30.23;;;13.77;;
32838;SDS011;19182;41.820;12.808;2024-01-30T01:45:20;22.80;;;13.43;;
32838;SDS011;19182;41.820;12.808;2024-01-30T01:47:49;30.05;;;14.57;;
32838;SDS011;19182;41.820;12.808;2024-01-30T01:50:16;28.00;;;14.07;;
32838;SDS011;19182;41.820;12.808;2024-01-30T01:52:43;28.88;;;14.43;;
32838;SDS011;19182;41.820;12.808;2024-01-30T01:55:14;21.98;;;12.93;;
32838;SDS011;19182;41.820;12.808;2024-01-30T01:57:41;24.38;;;12.93;;
32838;SDS011;19182;41.820;12.808;2024-01-30T02:00:08;23.55;;;13.23;;
32838;SDS011;19182;41.820;12.808;2024-01-30T02:02:36;25.38;;;12.80;;
32838;SDS011;19182;41.820;12.808;2024-01-30T02:05:02;20.17;;;12.35;;
32838;SDS011;19182;41.820;12.808;2024-01-30T02:07:30;23.23;;;12.57;;
32838;SDS011;19182;41.820;12.808;2024-01-30T02:09:56;25.80;;;13.00;;
32838;SDS011;19182;41.820;12.808;2024-01-30T02:12:22;26.13;;;12.98;;
32838;SDS011;19182;41.820;12.808;2024-01-30T02:14:48;22.98;;;13.65;;
32838;SDS011;19182;41.820;12.808;2024-01-30T02:17:15;25.65;;;12.75;;
32838;SDS011;19182;41.820;12.808;2024-01-30T02:19:42;22.95;;;12.05;;
32838;SDS011;19182;41.820;12.808;2024-01-30T02:22:10;20.27;;;11.93;;
32838;SDS011;19182;41.820;12.808;2024-01-30T02:24:37;24.27;;;11.90;;
32838;SDS011;19182;41.820;12.808;2024-01-30T02:27:03;24.70;;;12.63;;
32838;SDS011;19182;41.820;12.808;2024-01-30T02:29:29;25.67;;;13.02;;
32838;SDS011;19182;41.820;12.808;2024-01-30T02:31:55;24.90;;;13.00;;
32838;SDS011;19182;41.820;12.808;2024-01-30T02:34:21;24.20;;;13.18;;
32838;SDS011;19182;41.820;12.808;2024-01-30T02:36:46;25.60;;;13.15;;
32838;SDS011;19182;41.820;12.808;2024-01-30T02:39:13;23.15;;;12.70;;
32838;SDS011;19182;41.820;12.808;2024-01-30T02:41:38;28.98;;;14.45;;
32838;SDS011;19182;41.820;12.808;2024-01-30T02:44:04;29.20;;;15.20;;
32838;SDS011;19182;41.820;12.808;2024-01-30T02:46:30;29.42;;;15.40;;
32838;SDS011;19182;41.820;12.808;2024-01-30T02:48:56;30.63;;;14.98;;
32838;SDS011;19182;41.820;12.808;2024-01-30T02:51:22;25.92;;;15.88;;
32838;SDS011;19182;41.820;12.808;2024-01-30T02:53:53;29.70;;;15.93;;
32838;SDS011;19182;41.820;12.808;2024-01-30T02:56:18;27.90;;;15.52;;
32838;SDS011;19182;41.820;12.808;2024-01-30T02:58:44;32.92;;;16.23;;
32838;SDS011;19182;41.820;12.808;2024-01-30T03:01:09;29.58;;;16.38;;
32838;SDS011;19182;41.820;12.808;2024-01-30T03:03:35;30.83;;;15.07;;
32838;SDS011;19182;41.820;12.808;2024-01-30T03:06:03;28.45;;;14.25;;
32838;SDS011;19182;41.820;12.808;2024-01-30T03:08:29;27.45;;;14.60;;
32838;SDS011;19182;41.820;12.808;2024-01-30T03:10:54;24.45;;;15.27;;
32838;SDS011;19182;41.820;12.808;2024-01-30T03:13:21;26.58;;;13.75;;
32838;SDS011;19182;41.820;12.808;2024-01-30T03:15:50;25.27;;;14.50;;
32838;SDS011;19182;41.820;12.808;2024-01-30T03:18:17;24.55;;;15.20;;
32838;SDS011;19182;41.820;12.808;2024-01-30T03:20:44;30.42;;;14.55;;
32838;SDS011;19182;41.820;12.808;2024-01-30T03:23:10;27.67;;;14.90;;
32838;SDS011;19182;41.820;12.808;2024-01-30T03:25:36;33.53;;;15.57;;
32838;SDS011;19182;41.820;12.808;2024-01-30T03:28:02;30.15;;;15.02;;
32838;SDS011;19182;41.820;12.808;2024-01-30T03:30:28;28.40;;;14.35;;
32838;SDS011;19182;41.820;12.808;2024-01-30T03:32:55;25.13;;;14.77;;
32838;SDS011;19182;41.820;12.808;2024-01-30T03:35:21;26.13;;;15.07;;
32838;SDS011;19182;41.820;12.808;2024-01-30T03:37:47;26.52;;;15.43;;
32838;SDS011;19182;41.820;12.808;2024-01-30T03:40:13;29.35;;;16.63;;
32838;SDS011;19182;41.820;12.808;2024-01-30T03:42:40;30.70;;;14.90;;
32838;SDS011;19182;41.820;12.808;2024-01-30T03:45:06;25.15;;;14.75;;
32838;SDS011;19182;41.820;12.808;2024-01-30T03:47:33;26.33;;;15.13;;
32838;SDS011;19182;41.820;12.808;2024-01-30T03:49:59;27.13;;;15.27;;
32838;SDS011;19182;41.820;12.808;2024-01-30T03:52:26;28.75;;;14.63;;
32838;SDS011;19182;41.820;12.808;2024-01-30T03:54:55;24.95;;;14.80;;
32838;SDS011;19182;41.820;12.808;2024-01-30T03:57:20;24.60;;;14.77;;
32838;SDS011;19182;41.820;12.808;2024-01-30T03:59:47;29.05;;;14.70;;
32838;SDS011;19182;41.820;12.808;2024-01-30T04:02:17;29.58;;;14.68;;
32838;SDS011;19182;41.820;12.808;2024-01-30T04:04:52;31.02;;;15.15;;
32838;SDS011;19182;41.820;12.808;2024-01-30T04:07:18;23.80;;;15.07;;
32838;SDS011;19182;41.820;12.808;2024-01-30T04:09:53;23.20;;;14.63;;
32838;SDS011;19182;41.820;12.808;2024-01-30T04:12:19;26.65;;;15.10;;
32838;SDS011;19182;41.820;12.808;2024-01-30T04:14:45;31.58;;;16.27;;
32838;SDS011;19182;41.820;12.808;2024-01-30T04:17:11;27.42;;;15.57;;
32838;SDS011;19182;41.820;12.808;2024-01-30T04:19:37;26.23;;;14.57;;
32838;SDS011;19182;41.820;12.808;2024-01-30T04:22:03;29.98;;;15.68;;
32838;SDS011;19182;41.820;12.808;2024-01-30T04:24:29;24.95;;;15.02;;
32838;SDS011;19182;41.820;12.808;2024-01-30T04:26:55;29.70;;;15.30;;
32838;SDS011;19182;41.820;12.808;2024-01-30T04:29:22;32.58;;;16.30;;
32838;SDS011;19182;41.820;12.808;2024-01-30T04:31:47;27.17;;;15.32;;
32838;SDS011;19182;41.820;12.808;2024-01-30T04:34:14;25.85;;;15.13;;
32838;SDS011;19182;41.820;12.808;2024-01-30T04:36:40;25.15;;;14.38;;
32838;SDS011;19182;41.820;12.808;2024-01-30T04:39:10;26.05;;;15.57;;
32838;SDS011;19182;41.820;12.808;2024-01-30T04:41:37;27.02;;;14.27;;
32838;SDS011;19182;41.820;12.808;2024-01-30T04:44:03;24.98;;;14.55;;
32838;SDS011;19182;41.820;12.808;2024-01-30T04:46:29;28.38;;;15.55;;
32838;SDS011;19182;41.820;12.808;2024-01-30T04:48:54;31.73;;;14.05;;
32838;SDS011;19182;41.820;12.808;2024-01-30T04:51:20;25.10;;;13.80;;
32838;SDS011;19182;41.820;12.808;2024-01-30T04:53:46;25.25;;;13.82;;
32838;SDS011;19182;41.820;12.808;2024-01-30T04:56:13;29.05;;;14.50;;
32838;SDS011;19182;41.820;12.808;2024-01-30T04:58:39;29.95;;;14.30;;
32838;SDS011;19182;41.820;12.808;2024-01-30T05:01:06;25.50;;;13.23;;
32838;SDS011;19182;41.820;12.808;2024-01-30T05:03:35;24.50;;;13.65;;
32838;SDS011;19182;41.820;12.808;2024-01-30T05:06:01;28.35;;;13.52;;
32838;SDS011;19182;41.820;12.808;2024-01-30T05:08:28;22.98;;;13.13;;
32838;SDS011;19182;41.820;12.808;2024-01-30T05:10:54;28.58;;;13.57;;
32838;SDS011;19182;41.820;12.808;2024-01-30T05:13:19;29.08;;;14.55;;
32838;SDS011;19182;41.820;12.808;2024-01-30T05:15:46;25.02;;;13.07;;
32838;SDS011;19182;41.820;12.808;2024-01-30T05:18:13;22.92;;;13.30;;
32838;SDS011;19182;41.820;12.808;2024-01-30T05:20:39;28.25;;;13.90;;
32838;SDS011;19182;41.820;12.808;2024-01-30T05:23:05;29.48;;;13.35;;
32838;SDS011;19182;41.820;12.808;2024-01-30T05:25:31;25.30;;;14.15;;
32838;SDS011;19182;41.820;12.808;2024-01-30T05:27:57;24.13;;;13.05;;
32838;SDS011;19182;41.820;12.808;2024-01-30T05:30:23;24.98;;;13.25;;
32838;SDS011;19182;41.820;12.808;2024-01-30T05:32:49;29.60;;;13.13;;
32838;SDS011;19182;41.820;12.808;2024-01-30T05:35:15;26.67;;;13.98;;
32838;SDS011;19182;41.820;12.808;2024-01-30T05:37:42;27.20;;;13.05;;
32838;SDS011;19182;41.820;12.808;2024-01-30T05:40:09;22.80;;;13.88;;
32838;SDS011;19182;41.820;12.808;2024-01-30T05:42:36;29.25;;;14.13;;
32838;SDS011;19182;41.820;12.808;2024-01-30T05:45:04;25.30;;;13.57;;
32838;SDS011;19182;41.820;12.808;2024-01-30T05:47:31;26.65;;;14.52;;
32838;SDS011;19182;41.820;12.808;2024-01-30T05:49:58;21.20;;;13.25;;
32838;SDS011;19182;41.820;12.808;2024-01-30T05:52:28;25.77;;;14.13;;
32838;SDS011;19182;41.820;12.808;2024-01-30T05:54:55;27.27;;;14.38;;
32838;SDS011;19182;41.820;12.808;2024-01-30T05:57:23;23.80;;;13.57;;
32838;SDS011;19182;41.820;12.808;2024-01-30T05:59:49;21.55;;;13.40;;
32838;SDS011;19182;41.820;12.808;2024-01-30T06:02:17;28.13;;;12.65;;
32838;SDS011;19182;41.820;12.808;2024-01-30T06:04:44;23.40;;;12.63;;
32838;SDS011;19182;41.820;12.808;2024-01-30T06:07:11;26.63;;;12.70;;
32838;SDS011;19182;41.820;12.808;2024-01-30T06:09:37;23.45;;;13.23;;
32838;SDS011;19182;41.820;12.808;2024-01-30T06:12:04;26.85;;;13.88;;
32838;SDS011;19182;41.820;12.808;2024-01-30T06:14:31;26.23;;;13.60;;
32838;SDS011;19182;41.820;12.808;2024-01-30T06:16:58;25.42;;;13.85;;
32838;SDS011;19182;41.820;12.808;2024-01-30T06:19:25;25.73;;;14.68;;
32838;SDS011;19182;41.820;12.808;2024-01-30T06:21:51;26.08;;;13.95;;
32838;SDS011;19182;41.820;12.808;2024-01-30T06:24:16;25.55;;;14.10;;
32838;SDS011;19182;41.820;12.808;2024-01-30T06:26:43;26.70;;;13.73;;
32838;SDS011;19182;41.820;12.808;2024-01-30T06:29:10;24.13;;;13.93;;
32838;SDS011;19182;41.820;12.808;2024-01-30T06:31:40;30.45;;;15.15;;
32838;SDS011;19182;41.820;12.808;2024-01-30T06:34:09;26.75;;;14.60;;
32838;SDS011;19182;41.820;12.808;2024-01-30T06:36:36;25.45;;;15.25;;
32838;SDS011;19182;41.820;12.808;2024-01-30T06:39:02;31.80;;;15.60;;
32838;SDS011;19182;41.820;12.808;2024-01-30T06:41:28;31.08;;;16.42;;
32838;SDS011;19182;41.820;12.808;2024-01-30T06:43:55;35.20;;;17.10;;
32838;SDS011;19182;41.820;12.808;2024-01-30T06:46:22;29.10;;;15.23;;
32838;SDS011;19182;41.820;12.808;2024-01-30T06:48:48;30.95;;;16.20;;
32838;SDS011;19182;41.820;12.808;2024-01-30T06:51:14;37.03;;;18.85;;
32838;SDS011;19182;41.820;12.808;2024-01-30T06:53:40;32.55;;;17.38;;
32838;SDS011;19182;41.820;12.808;2024-01-30T06:56:07;33.60;;;17.55;;
32838;SDS011;19182;41.820;12.808;2024-01-30T06:58:34;40.15;;;18.08;;
32838;SDS011;19182;41.820;12.808;2024-01-30T07:01:01;32.38;;;17.48;;
32838;SDS011;19182;41.820;12.808;2024-01-30T07:03:28;33.13;;;18.13;;
32838;SDS011;19182;41.820;12.808;2024-01-30T07:05:55;32.58;;;18.52;;
32838;SDS011;19182;41.820;12.808;2024-01-30T07:08:22;35.35;;;19.02;;
32838;SDS011;19182;41.820;12.808;2024-01-30T07:10:49;33.28;;;18.83;;
32838;SDS011;19182;41.820;12.808;2024-01-30T07:13:15;33.83;;;16.88;;
32838;SDS011;19182;41.820;12.808;2024-01-30T07:15:42;31.02;;;18.40;;
32838;SDS011;19182;41.820;12.808;2024-01-30T07:18:08;36.67;;;18.60;;
32838;SDS011;19182;41.820;12.808;2024-01-30T07:20:35;34.83;;;19.65;;
32838;SDS011;19182;41.820;12.808;2024-01-30T07:23:02;34.10;;;18.63;;
32838;SDS011;19182;41.820;12.808;2024-01-30T07:25:29;36.83;;;19.17;;
32838;SDS011;19182;41.820;12.808;2024-01-30T07:27:56;33.50;;;19.95;;
32838;SDS011;19182;41.820;12.808;2024-01-30T07:30:22;38.08;;;21.08;;
32838;SDS011;19182;41.820;12.808;2024-01-30T07:32:52;34.80;;;20.02;;
32838;SDS011;19182;41.820;12.808;2024-01-30T07:35:18;36.75;;;20.95;;
32838;SDS011;19182;41.820;12.808;2024-01-30T07:37:45;28.38;;;17.77;;
32838;SDS011;19182;41.820;12.808;2024-01-30T07:40:20;24.30;;;15.80;;
32838;SDS011;19182;41.820;12.808;2024-01-30T07:42:58;25.63;;;15.07;;
32838;SDS011;19182;41.820;12.808;2024-01-30T07:45:26;23.38;;;13.88;;
32838;SDS011;19182;41.820;12.808;2024-01-30T07:47:52;30.23;;;14.32;;
32838;SDS011;19182;41.820;12.808;2024-01-30T07:50:21;23.67;;;14.27;;
32838;SDS011;19182;41.820;12.808;2024-01-30T07:52:46;17.52;;;13.05;;
32838;SDS011;19182;41.820;12.808;2024-01-30T07:55:16;20.08;;;12.43;;
32838;SDS011;19182;41.820;12.808;2024-01-30T07:57:46;16.65;;;11.95;;
32838;SDS011;19182;41.820;12.808;2024-01-30T08:00:12;24.45;;;13.70;;
32838;SDS011;19182;41.820;12.808;2024-01-30T08:02:40;16.67;;;12.00;;
32838;SDS011;19182;41.820;12.808;2024-01-30T08:05:06;18.38;;;12.25;;
32838;SDS011;19182;41.820;12.808;2024-01-30T08:07:34;19.20;;;12.63;;
32838;SDS011;19182;41.820;12.808;2024-01-30T08:10:00;19.15;;;12.82;;
32838;SDS011;19182;41.820;12.808;2024-01-30T08:12:27;17.05;;;12.45;;
32838;SDS011;19182;41.820;12.808;2024-01-30T08:14:53;18.88;;;13.00;;
32838;SDS011;19182;41.820;12.808;2024-01-30T08:17:19;18.85;;;12.88;;
32838;SDS011;19182;41.820;12.808;2024-01-30T08:19:47;17.45;;;11.77;;
32838;SDS011;19182;41.820;12.808;2024-01-30T08:22:13;22.17;;;13.18;;
32838;SDS011;19182;41.820;12.808;2024-01-30T08:24:40;21.92;;;13.27;;
32838;SDS011;19182;41.820;12.808;2024-01-30T08:27:07;23.52;;;13.82;;
32838;SDS011;19182;41.820;12.808;2024-01-30T08:29:37;22.25;;;15.73;;
32838;SDS011;19182;41.820;12.808;2024-01-30T08:32:03;25.65;;;15.13;;
32838;SDS011;19182;41.820;12.808;2024-01-30T08:34:31;18.42;;;14.18;;
32838;SDS011;19182;41.820;12.808;2024-01-30T08:36:57;21.00;;;15.55;;
32838;SDS011;19182;41.820;12.808;2024-01-30T08:39:23;24.38;;;15.00;;
32838;SDS011;19182;41.820;12.808;2024-01-30T08:41:49;19.45;;;13.75;;
32838;SDS011;19182;41.820;12.808;2024-01-30T08:44:22;18.85;;;13.63;;
32838;SDS011;19182;41.820;12.808;2024-01-30T08:46:47;20.38;;;13.68;;
32838;SDS011;19182;41.820;12.808;2024-01-30T08:49:16;19.90;;;13.35;;
32838;SDS011;19182;41.820;12.808;2024-01-30T08:51:42;21.17;;;12.95;;
32838;SDS011;19182;41.820;12.808;2024-01-30T08:54:07;15.70;;;11.95;;
32838;SDS011;19182;41.820;12.808;2024-01-30T08:56:33;17.85;;;12.48;;
32838;SDS011;19182;41.820;12.808;2024-01-30T08:59:00;17.60;;;12.68;;
32838;SDS011;19182;41.820;12.808;2024-01-30T09:01:26;16.73;;;12.65;;
32838;SDS011;19182;41.820;12.808;2024-01-30T09:03:52;16.80;;;12.63;;
32838;SDS011;19182;41.820;12.808;2024-01-30T09:06:18;16.02;;;13.02;;
32838;SDS011;19182;41.820;12.808;2024-01-30T09:08:44;17.92;;;13.40;;
32838;SDS011;19182;41.820;12.808;2024-01-30T09:11:13;18.13;;;13.55;;
32838;SDS011;19182;41.820;12.808;2024-01-30T09:13:48;13.75;;;11.68;;
32838;SDS011;19182;41.820;12.808;2024-01-30T09:16:14;16.10;;;12.27;;
32838;SDS011;19182;41.820;12.808;2024-01-30T09:18:41;14.70;;;10.88;;
32838;SDS011;19182;41.820;12.808;2024-01-30T09:21:07;12.27;;;10.48;;
32838;SDS011;19182;41.820;12.808;2024-01-30T09:23:33;14.35;;;9.35;;
32838;SDS011;19182;41.820;12.808;2024-01-30T09:25:59;12.57;;;9.57;;
32838;SDS011;19182;41.820;12.808;2024-01-30T09:28:25;11.95;;;9.23;;
32838;SDS011;19182;41.820;12.808;2024-01-30T09:30:52;13.02;;;9.50;;
32838;SDS011;19182;41.820;12.808;2024-01-30T09:33:18;10.52;;;9.00;;
32838;SDS011;19182;41.820;12.808;2024-01-30T09:35:45;13.25;;;9.85;;
32838;SDS011;19182;41.820;12.808;2024-01-30T09:38:13;13.93;;;9.18;;
32838;SDS011;19182;41.820;12.808;2024-01-30T09:40:39;14.95;;;9.02;;
32838;SDS011;19182;41.820;12.808;2024-01-30T09:43:10;11.07;;;8.48;;
32838;SDS011;19182;41.820;12.808;2024-01-30T09:45:42;15.35;;;10.48;;
32838;SDS011;19182;41.820;12.808;2024-01-30T09:48:09;11.20;;;9.25;;
32838;SDS011;19182;41.820;12.808;2024-01-30T09:50:35;16.08;;;11.57;;
32838;SDS011;19182;41.820;12.808;2024-01-30T09:53:02;15.30;;;9.70;;
32838;SDS011;19182;41.820;12.808;2024-01-30T09:55:31;14.23;;;9.30;;
32838;SDS011;19182;41.820;12.808;2024-01-30T09:57:57;11.05;;;8.52;;
32838;SDS011;19182;41.820;12.808;2024-01-30T10:00:24;11.88;;;9.23;;
32838;SDS011;19182;41.820;12.808;2024-01-30T10:02:52;12.13;;;9.82;;
32838;SDS011;19182;41.820;12.808;2024-01-30T10:05:19;11.27;;;8.93;;
32838;SDS011;19182;41.820;12.808;2024-01-30T10:07:58;15.52;;;9.68;;
32838;SDS011;19182;41.820;12.808;2024-01-30T10:10:24;12.20;;;8.37;;
32838;SDS011;19182;41.820;12.808;2024-01-30T10:12:51;9.73;;;8.35;;
32838;SDS011;19182;41.820;12.808;2024-01-30T10:15:17;10.93;;;8.35;;
32838;SDS011;19182;41.820;12.808;2024-01-30T10:17:44;10.65;;;8.30;;
32838;SDS011;19182;41.820;12.808;2024-01-30T10:20:14;9.93;;;7.88;;
32838;SDS011;19182;41.820;12.808;2024-01-30T10:22:40;12.70;;;9.07;;
32838;SDS011;19182;41.820;12.808;2024-01-30T10:25:09;13.50;;;8.70;;
32838;SDS011;19182;41.820;12.808;2024-01-30T10:27:35;9.25;;;7.68;;
32838;SDS011;19182;41.820;12.808;2024-01-30T10:30:01;10.38;;;7.90;;
32838;SDS011;19182;41.820;12.808;2024-01-30T10:32:29;10.25;;;8.30;;
32838;SDS011;19182;41.820;12.808;2024-01-30T10:34:55;11.98;;;8.43;;
32838;SDS011;19182;41.820;12.808;2024-01-30T10:37:21;10.50;;;9.10;;
32838;SDS011;19182;41.820;12.808;2024-01-30T10:39:50;10.35;;;8.27;;
32838;SDS011;19182;41.820;12.808;2024-01-30T10:42:20;13.23;;;8.18;;
32838;SDS011;19182;41.820;12.808;2024-01-30T10:45:08;10.65;;;8.15;;
32838;SDS011;19182;41.820;12.808;2024-01-30T10:47:43;8.88;;;7.97;;
32838;SDS011;19182;41.820;12.808;2024-01-30T10:50:19;14.02;;;10.07;;
32838;SDS011;19182;41.820;12.808;2024-01-30T10:52:46;12.70;;;9.73;;
32838;SDS011;19182;41.820;12.808;2024-01-30T10:55:12;12.68;;;9.23;;
32838;SDS011;19182;41.820;12.808;2024-01-30T10:57:44;12.68;;;9.73;;
32838;SDS011;19182;41.820;12.808;2024-01-30T11:00:11;16.20;;;10.07;;
32838;SDS011;19182;41.820;12.808;2024-01-30T11:02:41;16.92;;;10.82;;
32838;SDS011;19182;41.820;12.808;2024-01-30T11:05:12;11.65;;;9.90;;
32838;SDS011;19182;41.820;12.808;2024-01-30T11:07:40;14.45;;;9.23;;
32838;SDS011;19182;41.820;12.808;2024-01-30T11:10:06;13.35;;;9.70;;
32838;SDS011;19182;41.820;12.808;2024-01-30T11:12:38;13.15;;;9.93;;
32838;SDS011;19182;41.820;12.808;2024-01-30T11:15:09;15.38;;;9.30;;
32838;SDS011;19182;41.820;12.808;2024-01-30T11:20:31;16.88;;;10.35;;
32838;SDS011;19182;41.820;12.808;2024-01-30T11:23:01;14.43;;;10.23;;
32838;SDS011;19182;41.820;12.808;2024-01-30T11:25:31;15.73;;;9.32;;
32838;SDS011;19182;41.820;12.808;2024-01-30T11:27:57;13.60;;;10.13;;
32838;SDS011;19182;41.820;12.808;2024-01-30T11:30:24;19.30;;;10.32;;
32838;SDS011;19182;41.820;12.808;2024-01-30T11:35:41;16.83;;;10.20;;
32838;SDS011;19182;41.820;12.808;2024-01-30T11:38:07;12.15;;;9.10;;
32838;SDS011;19182;41.820;12.808;2024-01-30T11:40:35;17.77;;;9.40;;
32838;SDS011;19182;41.820;12.808;2024-01-30T11:43:03;17.42;;;9.43;;
32838;SDS011;19182;41.820;12.808;2024-01-30T11:45:32;14.90;;;10.27;;
32838;SDS011;19182;41.820;12.808;2024-01-30T11:48:01;15.88;;;9.98;;
32838;SDS011;19182;41.820;12.808;2024-01-30T11:50:35;19.73;;;10.77;;
32838;SDS011;19182;41.820;12.808;2024-01-30T11:53:03;16.65;;;11.75;;
32838;SDS011;19182;41.820;12.808;2024-01-30T11:55:30;13.73;;;10.20;;
32838;SDS011;19182;41.820;12.808;2024-01-30T11:57:56;22.40;;;16.10;;
32838;SDS011;19182;41.820;12.808;2024-01-30T12:00:24;16.55;;;10.55;;
32838;SDS011;19182;41.820;12.808;2024-01-30T12:02:51;11.48;;;9.10;;
32838;SDS011;19182;41.820;12.808;2024-01-30T12:05:27;11.50;;;10.30;;
32838;SDS011;19182;41.820;12.808;2024-01-30T12:07:54;12.95;;;10.57;;
32838;SDS011;19182;41.820;12.808;2024-01-30T12:10:23;19.35;;;13.48;;
32838;SDS011;19182;41.820;12.808;2024-01-30T12:12:49;14.07;;;10.55;;
32838;SDS011;19182;41.820;12.808;2024-01-30T12:15:15;13.75;;;9.88;;
32838;SDS011;19182;41.820;12.808;2024-01-30T12:17:43;14.95;;;12.77;;
32838;SDS011;19182;41.820;12.808;2024-01-30T12:20:28;14.77;;;11.18;;
32838;SDS011;19182;41.820;12.808;2024-01-30T12:22:58;15.77;;;12.43;;
32838;SDS011;19182;41.820;12.808;2024-01-30T12:25:24;15.45;;;12.25;;
32838;SDS011;19182;41.820;12.808;2024-01-30T12:27:52;14.18;;;11.80;;
32838;SDS011;19182;41.820;12.808;2024-01-30T12:30:21;17.10;;;12.63;;
32838;SDS011;19182;41.820;12.808;2024-01-30T12:32:47;15.55;;;12.38;;
32838;SDS011;19182;41.820;12.808;2024-01-30T12:35:17;16.55;;;13.10;;
32838;SDS011;19182;41.820;12.808;2024-01-30T12:37:44;17.50;;;13.00;;
32838;SDS011;19182;41.820;12.808;2024-01-30T12:40:16;18.15;;;12.88;;
32838;SDS011;19182;41.820;12.808;2024-01-30T12:42:45;15.20;;;12.50;;
32838;SDS011;19182;41.820;12.808;2024-01-30T12:45:14;18.23;;;13.05;;
32838;SDS011;19182;41.820;12.808;2024-01-30T12:47:41;14.15;;;12.32;;
32838;SDS011;19182;41.820;12.808;2024-01-30T12:50:07;17.38;;;12.98;;
32838;SDS011;19182;41.820;12.808;2024-01-30T12:52:41;14.63;;;12.60;;
32838;SDS011;19182;41.820;12.808;2024-01-30T12:55:08;21.23;;;15.23;;
32838;SDS011;19182;41.820;12.808;2024-01-30T12:57:34;16.58;;;12.10;;
32838;SDS011;19182;41.820;12.808;2024-01-30T13:00:00;17.13;;;13.00;;
32838;SDS011;19182;41.820;12.808;2024-01-30T13:02:27;16.95;;;13.50;;
32838;SDS011;19182;41.820;12.808;2024-01-30T13:05:00;19.67;;;13.18;;
32838;SDS011;19182;41.820;12.808;2024-01-30T13:07:26;19.50;;;13.57;;
32838;SDS011;19182;41.820;12.808;2024-01-30T13:09:52;16.95;;;14.40;;
32838;SDS011;19182;41.820;12.808;2024-01-30T13:12:19;19.35;;;13.43;;
32838;SDS011;19182;41.820;12.808;2024-01-30T13:14:47;18.42;;;14.10;;
32838;SDS011;19182;41.820;12.808;2024-01-30T13:17:12;19.63;;;13.40;;
32838;SDS011;19182;41.820;12.808;2024-01-30T13:19:39;22.65;;;15.40;;
32838;SDS011;19182;41.820;12.808;2024-01-30T13:22:06;30.40;;;24.17;;
32838;SDS011;19182;41.820;12.808;2024-01-30T13:24:31;24.27;;;15.80;;
32838;SDS011;19182;41.820;12.808;2024-01-30T13:27:01;19.70;;;14.18;;
32838;SDS011;19182;41.820;12.808;2024-01-30T13:29:26;20.20;;;13.88;;
32838;SDS011;19182;41.820;12.808;2024-01-30T13:31:52;21.38;;;15.27;;
32838;SDS011;19182;41.820;12.808;2024-01-30T13:34:18;20.25;;;14.75;;
32838;SDS011;19182;41.820;12.808;2024-01-30T13:36:45;17.92;;;13.85;;
32838;SDS011;19182;41.820;12.808;2024-01-30T13:39:13;23.10;;;15.25;;
32838;SDS011;19182;41.820;12.808;2024-01-30T13:41:43;22.38;;;14.35;;
32838;SDS011;19182;41.820;12.808;2024-01-30T13:44:09;24.85;;;15.27;;
32838;SDS011;19182;41.820;12.808;2024-01-30T13:46:41;22.88;;;14.60;;
32838;SDS011;19182;41.820;12.808;2024-01-30T13:49:07;30.23;;;17.10;;
32838;SDS011;19182;41.820;12.808;2024-01-30T13:51:34;24.33;;;14.98;;
32838;SDS011;19182;41.820;12.808;2024-01-30T13:54:00;21.63;;;16.30;;
32838;SDS011;19182;41.820;12.808;2024-01-30T13:56:27;26.20;;;16.17;;
32838;SDS011;19182;41.820;12.808;2024-01-30T13:58:54;19.52;;;15.77;;
32838;SDS011;19182;41.820;12.808;2024-01-30T14:01:21;24.48;;;15.70;;
32838;SDS011;19182;41.820;12.808;2024-01-30T14:03:48;23.67;;;17.35;;
32838;SDS011;19182;41.820;12.808;2024-01-30T14:06:14;28.15;;;21.77;;
32838;SDS011;19182;41.820;12.808;2024-01-30T14:08:46;26.60;;;18.00;;
32838;SDS011;19182;41.820;12.808;2024-01-30T14:11:17;26.73;;;17.77;;
32838;SDS011;19182;41.820;12.808;2024-01-30T14:13:44;26.05;;;17.33;;
32838;SDS011;19182;41.820;12.808;2024-01-30T14:16:10;27.88;;;18.05;;